sensor_id;sensor_type;location;lat;lon;timestamp;pressure;altitude;pressure_sealevel;temperature;humidity
10474;BME280;5284;50.446;7.904;2023-05-16T00:01:37;98312.06;;;11.75;100.00
10474;BME280;5284;50.446;7.904;2023-05-16T00:06:41;98309.81;;;11.70;100.00
10474;BME280;5284;50.446;7.904;2023-05-16T00:11:44;98308.97;;;11.70;100.00
10474;BME280;5284;50.446;7.904;2023-05-16T00:16:48;98307.44;;;11.67;100.00
10474;BME280;5284;50.446;7.904;2023-05-16T00:21:53;98303.91;;;11.67;100.00
10474;BME280;5284;50.446;7.904;2023-05-16T00:26:56;98308.41;;;11.66;100.00
10474;BME280;5284;50.446;7.904;2023-05-16T00:31:59;98312.50;;;11.61;100.00
10474;BME280;5284;50.446;7.904;2023-05-16T00:37:04;98310.97;;;11.58;100.00
10474;BME280;5284;50.446;7.904;2023-05-16T00:42:07;98316.00;;;11.52;100.00
10474;BME280;5284;50.446;7.904;2023-05-16T00:47:11;98316.41;;;11.47;100.00
10474;BME280;5284;50.446;7.904;2023-05-16T00:52:16;98315.16;;;11.42;100.00
10474;BME280;5284;50.446;7.904;2023-05-16T00:57:19;98303.06;;;11.38;100.00
10474;BME280;5284;50.446;7.904;2023-05-16T01:02:23;98312.03;;;11.37;100.00
10474;BME280;5284;50.446;7.904;2023-05-16T01:07:30;98315.03;;;11.24;100.00
10474;BME280;5284;50.446;7.904;2023-05-16T01:12:36;98309.53;;;11.26;100.00
10474;BME280;5284;50.446;7.904;2023-05-16T01:17:50;98313.88;;;11.17;100.00
10474;BME280;5284;50.446;7.904;2023-05-16T01:23:05;98318.38;;;11.07;100.00
10474;BME280;5284;50.446;7.904;2023-05-16T01:28:15;98309.78;;;11.04;100.00
10474;BME280;5284;50.446;7.904;2023-05-16T01:33:18;98309.06;;;11.02;100.00
10474;BME280;5284;50.446;7.904;2023-05-16T01:38:24;98311.75;;;11.02;100.00
10474;BME280;5284;50.446;7.904;2023-05-16T01:43:32;98307.25;;;10.93;100.00
10474;BME280;5284;50.446;7.904;2023-05-16T01:48:42;98311.31;;;10.97;100.00
10474;BME280;5284;50.446;7.904;2023-05-16T01:53:48;98307.94;;;10.95;100.00
10474;BME280;5284;50.446;7.904;2023-05-16T01:58:54;98313.28;;;10.95;100.00
10474;BME280;5284;50.446;7.904;2023-05-16T02:03:57;98322.44;;;10.92;100.00
10474;BME280;5284;50.446;7.904;2023-05-16T02:09:01;98322.16;;;10.95;100.00
10474;BME280;5284;50.446;7.904;2023-05-16T02:14:05;98314.13;;;10.86;100.00
10474;BME280;5284;50.446;7.904;2023-05-16T02:19:07;98312.72;;;10.82;100.00
10474;BME280;5284;50.446;7.904;2023-05-16T02:24:12;98308.38;;;10.81;100.00
10474;BME280;5284;50.446;7.904;2023-05-16T02:29:17;98316.06;;;10.74;100.00
10474;BME280;5284;50.446;7.904;2023-05-16T02:34:20;98319.00;;;10.71;100.00
10474;BME280;5284;50.446;7.904;2023-05-16T02:39:22;98326.56;;;10.66;100.00
10474;BME280;5284;50.446;7.904;2023-05-16T02:44:27;98326.97;;;10.62;100.00
10474;BME280;5284;50.446;7.904;2023-05-16T02:49:32;98329.22;;;10.57;100.00
10474;BME280;5284;50.446;7.904;2023-05-16T02:54:35;98328.78;;;10.52;100.00
10474;BME280;5284;50.446;7.904;2023-05-16T02:59:39;98333.78;;;10.46;100.00
10474;BME280;5284;50.446;7.904;2023-05-16T03:04:42;98328.47;;;10.46;100.00
10474;BME280;5284;50.446;7.904;2023-05-16T03:09:45;98330.41;;;10.44;100.00
10474;BME280;5284;50.446;7.904;2023-05-16T03:14:49;98333.22;;;10.42;100.00
10474;BME280;5284;50.446;7.904;2023-05-16T03:19:52;98328.69;;;10.33;100.00
10474;BME280;5284;50.446;7.904;2023-05-16T03:24:55;98340.47;;;10.31;100.00
10474;BME280;5284;50.446;7.904;2023-05-16T03:29:59;98338.63;;;10.31;100.00
10474;BME280;5284;50.446;7.904;2023-05-16T03:35:04;98341.72;;;10.27;100.00
10474;BME280;5284;50.446;7.904;2023-05-16T03:40:07;98341.13;;;10.23;100.00
10474;BME280;5284;50.446;7.904;2023-05-16T03:45:13;98342.00;;;10.24;100.00
10474;BME280;5284;50.446;7.904;2023-05-16T03:50:15;98356.81;;;10.17;100.00
10474;BME280;5284;50.446;7.904;2023-05-16T03:55:18;98360.19;;;10.19;100.00
10474;BME280;5284;50.446;7.904;2023-05-16T04:00:23;98360.84;;;10.11;100.00
10474;BME280;5284;50.446;7.904;2023-05-16T04:05:29;98373.59;;;10.08;100.00
10474;BME280;5284;50.446;7.904;2023-05-16T04:10:34;98383.78;;;10.03;100.00
10474;BME280;5284;50.446;7.904;2023-05-16T04:15:39;98373.63;;;9.97;100.00
10474;BME280;5284;50.446;7.904;2023-05-16T04:20:42;98387.94;;;9.96;100.00
10474;BME280;5284;50.446;7.904;2023-05-16T04:25:47;98395.47;;;9.91;100.00
10474;BME280;5284;50.446;7.904;2023-05-16T04:30:52;98394.75;;;9.89;100.00
10474;BME280;5284;50.446;7.904;2023-05-16T04:35:55;98398.06;;;9.81;100.00
10474;BME280;5284;50.446;7.904;2023-05-16T04:40:59;98403.94;;;9.85;100.00
10474;BME280;5284;50.446;7.904;2023-05-16T04:46:03;98403.84;;;9.86;100.00
10474;BME280;5284;50.446;7.904;2023-05-16T04:51:08;98406.75;;;9.83;100.00
10474;BME280;5284;50.446;7.904;2023-05-16T04:56:11;98412.81;;;9.85;100.00
10474;BME280;5284;50.446;7.904;2023-05-16T05:01:15;98427.69;;;9.88;100.00
10474;BME280;5284;50.446;7.904;2023-05-16T05:06:18;98424.16;;;9.87;100.00
10474;BME280;5284;50.446;7.904;2023-05-16T05:11:21;98434.44;;;9.92;100.00
10474;BME280;5284;50.446;7.904;2023-05-16T05:16:25;98432.34;;;9.95;100.00
10474;BME280;5284;50.446;7.904;2023-05-16T05:21:30;98443.16;;;9.94;100.00
10474;BME280;5284;50.446;7.904;2023-05-16T05:26:33;98452.19;;;10.02;100.00
10474;BME280;5284;50.446;7.904;2023-05-16T05:31:39;98453.78;;;10.05;100.00
10474;BME280;5284;50.446;7.904;2023-05-16T05:36:43;98462.22;;;10.10;100.00
10474;BME280;5284;50.446;7.904;2023-05-16T05:41:46;98470.28;;;10.19;100.00
10474;BME280;5284;50.446;7.904;2023-05-16T05:46:50;98479.59;;;10.25;100.00
10474;BME280;5284;50.446;7.904;2023-05-16T05:51:55;98490.38;;;10.23;100.00
10474;BME280;5284;50.446;7.904;2023-05-16T05:56:58;98493.41;;;10.19;100.00
10474;BME280;5284;50.446;7.904;2023-05-16T06:02:05;98503.63;;;10.14;100.00
10474;BME280;5284;50.446;7.904;2023-05-16T06:07:12;98505.63;;;10.01;100.00
10474;BME280;5284;50.446;7.904;2023-05-16T06:12:17;98514.44;;;10.12;100.00
10474;BME280;5284;50.446;7.904;2023-05-16T06:17:21;98528.97;;;10.08;100.00
10474;BME280;5284;50.446;7.904;2023-05-16T06:22:24;98537.50;;;10.23;100.00
10474;BME280;5284;50.446;7.904;2023-05-16T06:27:27;98540.91;;;10.25;100.00
10474;BME280;5284;50.446;7.904;2023-05-16T06:32:32;98547.47;;;10.41;100.00
10474;BME280;5284;50.446;7.904;2023-05-16T06:37:35;98565.66;;;10.36;100.00
10474;BME280;5284;50.446;7.904;2023-05-16T06:42:38;98569.25;;;10.15;100.00
10474;BME280;5284;50.446;7.904;2023-05-16T06:47:46;98576.28;;;10.16;100.00
10474;BME280;5284;50.446;7.904;2023-05-16T06:52:49;98581.66;;;10.36;100.00
10474;BME280;5284;50.446;7.904;2023-05-16T06:57:53;98587.44;;;10.10;100.00
10474;BME280;5284;50.446;7.904;2023-05-16T07:03:00;98587.91;;;10.26;100.00
10474;BME280;5284;50.446;7.904;2023-05-16T07:08:04;98600.25;;;10.27;100.00
10474;BME280;5284;50.446;7.904;2023-05-16T07:13:08;98601.63;;;10.42;100.00
10474;BME280;5284;50.446;7.904;2023-05-16T07:18:12;98604.59;;;10.28;100.00
10474;BME280;5284;50.446;7.904;2023-05-16T07:23:17;98608.25;;;10.27;100.00
10474;BME280;5284;50.446;7.904;2023-05-16T07:28:20;98612.88;;;10.45;100.00
10474;BME280;5284;50.446;7.904;2023-05-16T07:33:25;98617.28;;;10.35;100.00
10474;BME280;5284;50.446;7.904;2023-05-16T07:38:29;98627.41;;;10.21;100.00
10474;BME280;5284;50.446;7.904;2023-05-16T07:43:31;98633.00;;;10.07;100.00
10474;BME280;5284;50.446;7.904;2023-05-16T07:48:37;98628.84;;;10.14;100.00
10474;BME280;5284;50.446;7.904;2023-05-16T07:53:40;98636.50;;;9.96;100.00
10474;BME280;5284;50.446;7.904;2023-05-16T07:58:46;98640.03;;;9.97;100.00
10474;BME280;5284;50.446;7.904;2023-05-16T08:03:50;98643.53;;;9.86;100.00
10474;BME280;5284;50.446;7.904;2023-05-16T08:08:54;98649.06;;;10.27;100.00
10474;BME280;5284;50.446;7.904;2023-05-16T08:13:57;98651.06;;;10.97;100.00
10474;BME280;5284;50.446;7.904;2023-05-16T08:19:02;98645.06;;;11.25;100.00
10474;BME280;5284;50.446;7.904;2023-05-16T08:24:05;98652.84;;;10.97;100.00
10474;BME280;5284;50.446;7.904;2023-05-16T08:29:10;98652.13;;;11.15;100.00
10474;BME280;5284;50.446;7.904;2023-05-16T08:34:16;98655.75;;;11.35;100.00
10474;BME280;5284;50.446;7.904;2023-05-16T08:39:19;98660.09;;;11.26;100.00
10474;BME280;5284;50.446;7.904;2023-05-16T08:44:22;98667.34;;;10.83;100.00
10474;BME280;5284;50.446;7.904;2023-05-16T08:49:29;98674.34;;;10.75;100.00
10474;BME280;5284;50.446;7.904;2023-05-16T08:54:34;98664.84;;;10.82;100.00
10474;BME280;5284;50.446;7.904;2023-05-16T08:59:39;98677.59;;;10.99;99.15
10474;BME280;5284;50.446;7.904;2023-05-16T09:04:44;98672.66;;;11.15;94.61
10474;BME280;5284;50.446;7.904;2023-05-16T09:09:49;98671.47;;;12.27;93.06
10474;BME280;5284;50.446;7.904;2023-05-16T09:14:53;98669.28;;;12.70;86.01
10474;BME280;5284;50.446;7.904;2023-05-16T09:20:07;98674.13;;;12.18;86.13
10474;BME280;5284;50.446;7.904;2023-05-16T09:25:15;98684.91;;;11.98;87.24
10474;BME280;5284;50.446;7.904;2023-05-16T09:30:33;98667.34;;;13.01;78.96
10474;BME280;5284;50.446;7.904;2023-05-16T09:35:39;98666.91;;;14.33;76.22
10474;BME280;5284;50.446;7.904;2023-05-16T09:40:49;98674.28;;;13.95;72.69
10474;BME280;5284;50.446;7.904;2023-05-16T09:45:52;98669.78;;;13.50;74.54
10474;BME280;5284;50.446;7.904;2023-05-16T09:50:57;98677.47;;;13.07;70.88
10474;BME280;5284;50.446;7.904;2023-05-16T09:56:05;98669.19;;;13.56;68.13
10474;BME280;5284;50.446;7.904;2023-05-16T10:01:10;98670.53;;;13.78;64.99
10474;BME280;5284;50.446;7.904;2023-05-16T10:06:16;98658.84;;;14.33;62.55
10474;BME280;5284;50.446;7.904;2023-05-16T10:11:22;98672.34;;;14.14;60.49
10474;BME280;5284;50.446;7.904;2023-05-16T10:16:28;98660.41;;;14.53;60.72
10474;BME280;5284;50.446;7.904;2023-05-16T10:21:33;98660.63;;;15.12;57.08
10474;BME280;5284;50.446;7.904;2023-05-16T10:26:39;98657.53;;;15.42;58.48
10474;BME280;5284;50.446;7.904;2023-05-16T10:31:43;98659.22;;;15.26;57.07
10474;BME280;5284;50.446;7.904;2023-05-16T10:36:49;98660.72;;;15.03;56.26
10474;BME280;5284;50.446;7.904;2023-05-16T10:41:54;98651.53;;;14.70;56.46
10474;BME280;5284;50.446;7.904;2023-05-16T10:46:58;98648.03;;;15.13;57.57
10474;BME280;5284;50.446;7.904;2023-05-16T10:52:07;98651.09;;;15.35;54.60
10474;BME280;5284;50.446;7.904;2023-05-16T10:57:11;98644.66;;;15.28;53.80
10474;BME280;5284;50.446;7.904;2023-05-16T11:02:24;98642.94;;;16.53;54.30
10474;BME280;5284;50.446;7.904;2023-05-16T11:07:31;98642.41;;;16.00;52.83
10474;BME280;5284;50.446;7.904;2023-05-16T11:12:41;98655.50;;;15.01;52.14
10474;BME280;5284;50.446;7.904;2023-05-16T11:17:45;98657.88;;;16.47;51.78
10474;BME280;5284;50.446;7.904;2023-05-16T11:22:50;98651.84;;;15.45;51.40
10474;BME280;5284;50.446;7.904;2023-05-16T11:27:55;98660.72;;;15.03;52.03
10474;BME280;5284;50.446;7.904;2023-05-16T11:32:58;98666.69;;;16.65;51.33
10474;BME280;5284;50.446;7.904;2023-05-16T11:38:03;98645.81;;;16.51;47.81
10474;BME280;5284;50.446;7.904;2023-05-16T11:43:06;98648.38;;;16.69;49.91
10474;BME280;5284;50.446;7.904;2023-05-16T11:48:09;98662.06;;;17.23;46.79
10474;BME280;5284;50.446;7.904;2023-05-16T11:53:23;98646.38;;;17.18;47.26
10474;BME280;5284;50.446;7.904;2023-05-16T11:58:27;98649.69;;;17.76;47.80
10474;BME280;5284;50.446;7.904;2023-05-16T12:03:30;98653.38;;;16.64;48.72
10474;BME280;5284;50.446;7.904;2023-05-16T12:08:38;98651.41;;;18.16;45.01
10474;BME280;5284;50.446;7.904;2023-05-16T12:13:41;98659.81;;;17.66;46.28
10474;BME280;5284;50.446;7.904;2023-05-16T12:18:44;98655.34;;;18.05;45.28
10474;BME280;5284;50.446;7.904;2023-05-16T12:23:49;98663.66;;;17.96;47.16
10474;BME280;5284;50.446;7.904;2023-05-16T12:28:56;98670.75;;;19.26;44.25
10474;BME280;5284;50.446;7.904;2023-05-16T12:34:01;98667.69;;;19.81;43.54
10474;BME280;5284;50.446;7.904;2023-05-16T12:39:11;98666.88;;;18.38;44.28
10474;BME280;5284;50.446;7.904;2023-05-16T12:44:17;98672.13;;;21.31;43.09
10474;BME280;5284;50.446;7.904;2023-05-16T12:49:21;98677.41;;;22.08;40.57
10474;BME280;5284;50.446;7.904;2023-05-16T12:54:25;98677.06;;;20.50;41.26
10474;BME280;5284;50.446;7.904;2023-05-16T12:59:29;98680.47;;;19.87;40.56
10474;BME280;5284;50.446;7.904;2023-05-16T13:04:33;98684.22;;;18.51;42.76
10474;BME280;5284;50.446;7.904;2023-05-16T13:09:39;98690.31;;;17.83;42.29
10474;BME280;5284;50.446;7.904;2023-05-16T13:14:43;98692.00;;;17.92;43.83
10474;BME280;5284;50.446;7.904;2023-05-16T13:19:48;98705.38;;;17.45;44.69
10474;BME280;5284;50.446;7.904;2023-05-16T13:24:57;98701.53;;;16.67;45.19
10474;BME280;5284;50.446;7.904;2023-05-16T13:30:00;98701.41;;;16.84;45.77
10474;BME280;5284;50.446;7.904;2023-05-16T13:35:05;98707.50;;;18.52;43.00
10474;BME280;5284;50.446;7.904;2023-05-16T13:40:10;98705.56;;;20.46;40.02
10474;BME280;5284;50.446;7.904;2023-05-16T13:45:16;98706.66;;;22.06;38.35
10474;BME280;5284;50.446;7.904;2023-05-16T13:50:19;98703.94;;;21.58;38.67
10474;BME280;5284;50.446;7.904;2023-05-16T13:55:26;98708.38;;;22.41;38.07
10474;BME280;5284;50.446;7.904;2023-05-16T14:00:31;98715.41;;;25.16;34.94
10474;BME280;5284;50.446;7.904;2023-05-16T14:05:51;98721.56;;;24.35;36.05
10474;BME280;5284;50.446;7.904;2023-05-16T14:11:00;98706.81;;;25.81;33.35
10474;BME280;5284;50.446;7.904;2023-05-16T14:16:03;98712.56;;;22.91;36.38
10474;BME280;5284;50.446;7.904;2023-05-16T14:21:06;98708.50;;;19.94;39.01
10474;BME280;5284;50.446;7.904;2023-05-16T14:26:11;98707.88;;;21.35;38.31
10474;BME280;5284;50.446;7.904;2023-05-16T14:31:15;98701.53;;;19.62;39.80
10474;BME280;5284;50.446;7.904;2023-05-16T14:36:18;98704.81;;;22.88;38.05
10474;BME280;5284;50.446;7.904;2023-05-16T14:41:25;98705.13;;;27.07;33.76
10474;BME280;5284;50.446;7.904;2023-05-16T14:46:29;98698.47;;;26.00;32.38
10474;BME280;5284;50.446;7.904;2023-05-16T14:51:32;98704.81;;;28.37;30.74
10474;BME280;5284;50.446;7.904;2023-05-16T14:56:37;98698.91;;;29.03;31.04
10474;BME280;5284;50.446;7.904;2023-05-16T15:21:12;98715.53;;;20.46;37.80
10474;BME280;5284;50.446;7.904;2023-05-16T15:26:16;98732.16;;;19.40;40.18
10474;BME280;5284;50.446;7.904;2023-05-16T15:31:20;98726.97;;;18.78;41.60
10474;BME280;5284;50.446;7.904;2023-05-16T15:36:24;98731.13;;;25.95;33.62
10474;BME280;5284;50.446;7.904;2023-05-16T15:41:27;98729.50;;;28.95;29.83
10474;BME280;5284;50.446;7.904;2023-05-16T15:46:50;98751.41;;;30.46;28.71
10474;BME280;5284;50.446;7.904;2023-05-16T15:51:56;98748.34;;;26.27;32.30
10474;BME280;5284;50.446;7.904;2023-05-16T15:57:01;98756.19;;;24.35;34.85
10474;BME280;5284;50.446;7.904;2023-05-16T16:02:04;98761.28;;;25.51;33.05
10474;BME280;5284;50.446;7.904;2023-05-16T16:07:10;98766.38;;;19.93;40.35
10474;BME280;5284;50.446;7.904;2023-05-16T16:12:13;98767.44;;;19.69;42.50
10474;BME280;5284;50.446;7.904;2023-05-16T16:17:18;98765.59;;;18.48;44.75
10474;BME280;5284;50.446;7.904;2023-05-16T16:22:25;98776.81;;;17.33;46.26
10474;BME280;5284;50.446;7.904;2023-05-16T16:27:28;98766.34;;;17.22;46.74
10474;BME280;5284;50.446;7.904;2023-05-16T16:32:31;98760.88;;;16.98;47.55
10474;BME280;5284;50.446;7.904;2023-05-16T16:37:36;98768.78;;;16.43;48.47
10474;BME280;5284;50.446;7.904;2023-05-16T16:42:43;98773.38;;;16.50;48.12
10474;BME280;5284;50.446;7.904;2023-05-16T16:47:46;98762.84;;;22.06;40.35
10474;BME280;5284;50.446;7.904;2023-05-16T16:52:52;98764.59;;;27.54;32.91
10474;BME280;5284;50.446;7.904;2023-05-16T16:57:55;98754.59;;;28.52;31.90
10474;BME280;5284;50.446;7.904;2023-05-16T17:02:58;98751.50;;;29.23;31.04
10474;BME280;5284;50.446;7.904;2023-05-16T17:08:03;98765.16;;;31.17;29.48
10474;BME280;5284;50.446;7.904;2023-05-16T17:13:06;98762.34;;;29.96;29.41
10474;BME280;5284;50.446;7.904;2023-05-16T17:18:12;98767.72;;;29.75;29.37
10474;BME280;5284;50.446;7.904;2023-05-16T17:23:16;98768.50;;;30.81;28.50
10474;BME280;5284;50.446;7.904;2023-05-16T17:28:22;98770.44;;;26.50;32.25
10474;BME280;5284;50.446;7.904;2023-05-16T17:33:25;98770.97;;;22.27;36.78
10474;BME280;5284;50.446;7.904;2023-05-16T17:38:30;98768.47;;;19.46;41.29
10474;BME280;5284;50.446;7.904;2023-05-16T17:43:35;98780.88;;;17.85;44.18
10474;BME280;5284;50.446;7.904;2023-05-16T17:48:38;98775.44;;;17.29;45.23
10474;BME280;5284;50.446;7.904;2023-05-16T17:53:42;98779.44;;;16.52;46.02
10474;BME280;5284;50.446;7.904;2023-05-16T17:58:46;98784.41;;;15.88;48.31
10474;BME280;5284;50.446;7.904;2023-05-16T18:03:49;98776.31;;;15.28;49.62
10474;BME280;5284;50.446;7.904;2023-05-16T18:08:54;98780.28;;;15.24;49.98
10474;BME280;5284;50.446;7.904;2023-05-16T18:13:57;98785.97;;;15.04;51.93
10474;BME280;5284;50.446;7.904;2023-05-16T18:19:01;98787.38;;;14.63;52.08
10474;BME280;5284;50.446;7.904;2023-05-16T18:24:07;98795.44;;;14.08;51.60
10474;BME280;5284;50.446;7.904;2023-05-16T18:29:11;98801.75;;;13.71;52.42
10474;BME280;5284;50.446;7.904;2023-05-16T18:34:18;98800.81;;;13.24;53.76
10474;BME280;5284;50.446;7.904;2023-05-16T18:39:22;98797.81;;;12.99;55.37
10474;BME280;5284;50.446;7.904;2023-05-16T18:44:25;98805.50;;;12.83;57.07
10474;BME280;5284;50.446;7.904;2023-05-16T18:49:28;98817.66;;;12.47;60.36
10474;BME280;5284;50.446;7.904;2023-05-16T18:54:38;98821.59;;;12.14;64.07
10474;BME280;5284;50.446;7.904;2023-05-16T18:59:41;98828.53;;;11.96;67.10
10474;BME280;5284;50.446;7.904;2023-05-16T19:04:44;98846.72;;;11.81;68.29
10474;BME280;5284;50.446;7.904;2023-05-16T19:09:49;98850.84;;;11.54;70.86
10474;BME280;5284;50.446;7.904;2023-05-16T19:14:52;98859.66;;;11.34;73.19
10474;BME280;5284;50.446;7.904;2023-05-16T19:19:55;98867.63;;;11.24;75.51
10474;BME280;5284;50.446;7.904;2023-05-16T19:25:00;98881.97;;;11.01;77.95
10474;BME280;5284;50.446;7.904;2023-05-16T19:30:04;98885.16;;;10.95;78.29
10474;BME280;5284;50.446;7.904;2023-05-16T19:35:08;98891.13;;;10.77;81.07
10474;BME280;5284;50.446;7.904;2023-05-16T19:40:13;98912.34;;;10.67;83.34
10474;BME280;5284;50.446;7.904;2023-05-16T19:45:18;98903.50;;;10.56;84.08
10474;BME280;5284;50.446;7.904;2023-05-16T19:50:21;98898.53;;;10.41;86.47
10474;BME280;5284;50.446;7.904;2023-05-16T19:55:25;98912.34;;;10.35;87.01
10474;BME280;5284;50.446;7.904;2023-05-16T20:00:31;98917.41;;;10.27;87.77
10474;BME280;5284;50.446;7.904;2023-05-16T20:05:34;98924.53;;;10.15;89.46
10474;BME280;5284;50.446;7.904;2023-05-16T20:10:39;98930.34;;;10.09;89.81
10474;BME280;5284;50.446;7.904;2023-05-16T20:15:41;98933.59;;;10.02;90.35
10474;BME280;5284;50.446;7.904;2023-05-16T20:20:44;98937.66;;;9.95;91.41
10474;BME280;5284;50.446;7.904;2023-05-16T20:25:49;98942.59;;;9.88;91.80
10474;BME280;5284;50.446;7.904;2023-05-16T20:30:51;98947.31;;;9.85;93.76
10474;BME280;5284;50.446;7.904;2023-05-16T20:35:55;98946.00;;;9.90;93.98
10474;BME280;5284;50.446;7.904;2023-05-16T20:41:01;98947.94;;;9.88;94.75
10474;BME280;5284;50.446;7.904;2023-05-16T20:46:05;98951.47;;;10.00;95.75
10474;BME280;5284;50.446;7.904;2023-05-16T20:51:08;98961.94;;;10.03;94.11
10474;BME280;5284;50.446;7.904;2023-05-16T20:56:12;98961.06;;;10.02;96.15
10474;BME280;5284;50.446;7.904;2023-05-16T21:01:15;98958.22;;;10.05;95.96
10474;BME280;5284;50.446;7.904;2023-05-16T21:06:18;98963.16;;;10.10;96.09
10474;BME280;5284;50.446;7.904;2023-05-16T21:11:22;98968.16;;;10.14;96.50
10474;BME280;5284;50.446;7.904;2023-05-16T21:16:25;98963.56;;;10.16;95.75
10474;BME280;5284;50.446;7.904;2023-05-16T21:21:31;98967.91;;;10.17;99.34
10474;BME280;5284;50.446;7.904;2023-05-16T21:26:35;98976.41;;;10.22;95.07
10474;BME280;5284;50.446;7.904;2023-05-16T21:31:38;98978.34;;;10.20;100.00
10474;BME280;5284;50.446;7.904;2023-05-16T21:36:41;98982.06;;;10.18;100.00
10474;BME280;5284;50.446;7.904;2023-05-16T21:41:45;98976.75;;;10.18;100.00
10474;BME280;5284;50.446;7.904;2023-05-16T21:46:48;98984.25;;;10.13;100.00
10474;BME280;5284;50.446;7.904;2023-05-16T21:51:51;98980.59;;;10.03;100.00
10474;BME280;5284;50.446;7.904;2023-05-16T21:56:55;98985.19;;;10.01;100.00
10474;BME280;5284;50.446;7.904;2023-05-16T22:01:58;98992.25;;;9.89;100.00
10474;BME280;5284;50.446;7.904;2023-05-16T22:07:01;98998.38;;;9.79;100.00
10474;BME280;5284;50.446;7.904;2023-05-16T22:12:06;99001.72;;;9.70;100.00
10474;BME280;5284;50.446;7.904;2023-05-16T22:17:09;99003.88;;;9.65;100.00
10474;BME280;5284;50.446;7.904;2023-05-16T22:22:12;99002.13;;;9.53;100.00
10474;BME280;5284;50.446;7.904;2023-05-16T22:27:16;99007.38;;;9.42;100.00
10474;BME280;5284;50.446;7.904;2023-05-16T22:32:19;99003.56;;;9.33;100.00
10474;BME280;5284;50.446;7.904;2023-05-16T22:37:22;99011.63;;;9.21;100.00
10474;BME280;5284;50.446;7.904;2023-05-16T22:42:26;99018.25;;;9.03;100.00
10474;BME280;5284;50.446;7.904;2023-05-16T22:47:30;99015.50;;;8.92;100.00
10474;BME280;5284;50.446;7.904;2023-05-16T22:52:33;99019.00;;;8.80;100.00
10474;BME280;5284;50.446;7.904;2023-05-16T22:57:42;99025.41;;;8.65;100.00
10474;BME280;5284;50.446;7.904;2023-05-16T23:02:45;99022.97;;;8.50;100.00
10474;BME280;5284;50.446;7.904;2023-05-16T23:07:48;99029.84;;;8.27;100.00
10474;BME280;5284;50.446;7.904;2023-05-16T23:12:53;99026.91;;;8.05;100.00
10474;BME280;5284;50.446;7.904;2023-05-16T23:17:55;99024.44;;;8.02;100.00
10474;BME280;5284;50.446;7.904;2023-05-16T23:22:58;99022.91;;;7.86;100.00
10474;BME280;5284;50.446;7.904;2023-05-16T23:28:03;99034.44;;;7.72;100.00
10474;BME280;5284;50.446;7.904;2023-05-16T23:33:06;99028.66;;;7.53;100.00
10474;BME280;5284;50.446;7.904;2023-05-16T23:38:09;99027.03;;;7.51;100.00
10474;BME280;5284;50.446;7.904;2023-05-16T23:43:13;99043.66;;;7.41;100.00
10474;BME280;5284;50.446;7.904;2023-05-16T23:48:16;99033.84;;;7.29;100.00
10474;BME280;5284;50.446;7.904;2023-05-16T23:53:20;99034.31;;;7.21;100.00
10474;BME280;5284;50.446;7.904;2023-05-16T23:58:29;99035.56;;;7.16;100.00
